sensor_id;sensor_type;location;lat;lon;timestamp;temperature;humidity
39525;DHT22;25203;50.754;6.978;2022-12-24T00:00:38;11.10;99.90
39525;DHT22;25203;50.754;6.978;2022-12-24T00:02:38;11.00;99.90
39525;DHT22;25203;50.754;6.978;2022-12-24T00:04:39;10.90;99.90
39525;DHT22;25203;50.754;6.978;2022-12-24T00:06:40;10.90;99.90
39525;DHT22;25203;50.754;6.978;2022-12-24T00:08:40;10.80;99.90
39525;DHT22;25203;50.754;6.978;2022-12-24T00:10:41;10.80;99.90
39525;DHT22;25203;50.754;6.978;2022-12-24T00:12:42;10.80;99.90
39525;DHT22;25203;50.754;6.978;2022-12-24T00:14:42;10.70;99.90
39525;DHT22;25203;50.754;6.978;2022-12-24T00:16:43;10.80;99.90
39525;DHT22;25203;50.754;6.978;2022-12-24T00:18:44;10.70;99.90
39525;DHT22;25203;50.754;6.978;2022-12-24T00:20:46;10.70;99.90
39525;DHT22;25203;50.754;6.978;2022-12-24T00:22:47;10.60;99.90
39525;DHT22;25203;50.754;6.978;2022-12-24T00:24:47;10.60;99.90
39525;DHT22;25203;50.754;6.978;2022-12-24T00:26:48;10.60;99.90
39525;DHT22;25203;50.754;6.978;2022-12-24T00:28:49;10.60;99.90
39525;DHT22;25203;50.754;6.978;2022-12-24T00:30:49;10.60;99.90
39525;DHT22;25203;50.754;6.978;2022-12-24T00:32:50;10.60;99.90
39525;DHT22;25203;50.754;6.978;2022-12-24T00:34:50;10.60;99.90
39525;DHT22;25203;50.754;6.978;2022-12-24T00:36:51;10.60;99.90
39525;DHT22;25203;50.754;6.978;2022-12-24T00:38:52;10.60;99.90
39525;DHT22;25203;50.754;6.978;2022-12-24T00:41:01;10.60;99.90
39525;DHT22;25203;50.754;6.978;2022-12-24T00:43:01;10.70;99.90
39525;DHT22;25203;50.754;6.978;2022-12-24T00:45:02;10.70;99.90
39525;DHT22;25203;50.754;6.978;2022-12-24T00:47:03;10.70;99.90
39525;DHT22;25203;50.754;6.978;2022-12-24T00:49:05;10.90;99.90
39525;DHT22;25203;50.754;6.978;2022-12-24T00:51:05;10.90;99.90
39525;DHT22;25203;50.754;6.978;2022-12-24T00:53:06;10.90;99.90
39525;DHT22;25203;50.754;6.978;2022-12-24T00:55:07;10.90;99.90
39525;DHT22;25203;50.754;6.978;2022-12-24T00:57:07;10.90;99.90
39525;DHT22;25203;50.754;6.978;2022-12-24T00:59:08;10.90;99.90
39525;DHT22;25203;50.754;6.978;2022-12-24T01:01:09;10.80;99.90
39525;DHT22;25203;50.754;6.978;2022-12-24T01:03:09;10.80;99.90
39525;DHT22;25203;50.754;6.978;2022-12-24T01:05:10;10.90;99.90
39525;DHT22;25203;50.754;6.978;2022-12-24T01:07:11;10.80;99.90
39525;DHT22;25203;50.754;6.978;2022-12-24T01:09:11;10.80;99.90
39525;DHT22;25203;50.754;6.978;2022-12-24T01:11:12;10.90;99.90
39525;DHT22;25203;50.754;6.978;2022-12-24T01:13:13;10.90;99.90
39525;DHT22;25203;50.754;6.978;2022-12-24T01:15:14;10.80;99.90
39525;DHT22;25203;50.754;6.978;2022-12-24T01:17:15;10.90;99.90
39525;DHT22;25203;50.754;6.978;2022-12-24T01:19:16;10.90;99.90
39525;DHT22;25203;50.754;6.978;2022-12-24T01:21:16;10.90;99.90
39525;DHT22;25203;50.754;6.978;2022-12-24T01:23:17;11.00;99.90
39525;DHT22;25203;50.754;6.978;2022-12-24T01:25:17;11.00;99.90
39525;DHT22;25203;50.754;6.978;2022-12-24T01:27:19;11.10;99.90
39525;DHT22;25203;50.754;6.978;2022-12-24T01:29:20;11.10;99.90
39525;DHT22;25203;50.754;6.978;2022-12-24T01:31:20;11.20;99.90
39525;DHT22;25203;50.754;6.978;2022-12-24T01:33:21;11.10;99.90
39525;DHT22;25203;50.754;6.978;2022-12-24T01:35:21;11.10;99.90
39525;DHT22;25203;50.754;6.978;2022-12-24T01:37:22;11.00;99.90
39525;DHT22;25203;50.754;6.978;2022-12-24T01:39:23;11.00;99.90
39525;DHT22;25203;50.754;6.978;2022-12-24T01:41:24;10.90;99.90
39525;DHT22;25203;50.754;6.978;2022-12-24T01:43:44;10.90;99.90
39525;DHT22;25203;50.754;6.978;2022-12-24T01:45:46;10.90;99.90
39525;DHT22;25203;50.754;6.978;2022-12-24T01:47:46;10.90;99.90
39525;DHT22;25203;50.754;6.978;2022-12-24T01:49:51;11.00;99.90
39525;DHT22;25203;50.754;6.978;2022-12-24T01:51:57;11.10;99.90
39525;DHT22;25203;50.754;6.978;2022-12-24T01:56:10;11.00;99.90
39525;DHT22;25203;50.754;6.978;2022-12-24T01:58:13;10.90;99.90
39525;DHT22;25203;50.754;6.978;2022-12-24T02:00:16;10.90;99.90
39525;DHT22;25203;50.754;6.978;2022-12-24T02:02:17;10.90;99.90
39525;DHT22;25203;50.754;6.978;2022-12-24T02:04:39;10.90;99.90
39525;DHT22;25203;50.754;6.978;2022-12-24T02:06:42;10.80;99.90
39525;DHT22;25203;50.754;6.978;2022-12-24T02:08:43;10.80;99.90
39525;DHT22;25203;50.754;6.978;2022-12-24T02:10:44;10.80;99.90
39525;DHT22;25203;50.754;6.978;2022-12-24T02:12:46;10.70;99.90
39525;DHT22;25203;50.754;6.978;2022-12-24T02:14:47;10.70;99.90
39525;DHT22;25203;50.754;6.978;2022-12-24T02:19:25;10.70;99.90
39525;DHT22;25203;50.754;6.978;2022-12-24T02:21:45;10.70;99.90
39525;DHT22;25203;50.754;6.978;2022-12-24T02:33:28;10.50;99.90
39525;DHT22;25203;50.754;6.978;2022-12-24T02:36:03;10.60;99.90
39525;DHT22;25203;50.754;6.978;2022-12-24T02:38:12;10.60;99.90
39525;DHT22;25203;50.754;6.978;2022-12-24T02:40:18;10.50;99.90
39525;DHT22;25203;50.754;6.978;2022-12-24T02:42:26;10.50;99.90
39525;DHT22;25203;50.754;6.978;2022-12-24T02:44:33;10.50;99.90
39525;DHT22;25203;50.754;6.978;2022-12-24T02:46:36;10.40;99.90
39525;DHT22;25203;50.754;6.978;2022-12-24T02:48:38;10.40;99.90
39525;DHT22;25203;50.754;6.978;2022-12-24T02:50:54;10.40;99.90
39525;DHT22;25203;50.754;6.978;2022-12-24T02:52:54;10.40;99.90
39525;DHT22;25203;50.754;6.978;2022-12-24T02:54:56;10.40;99.90
39525;DHT22;25203;50.754;6.978;2022-12-24T02:57:16;10.40;99.90
39525;DHT22;25203;50.754;6.978;2022-12-24T03:04:32;10.60;99.90
39525;DHT22;25203;50.754;6.978;2022-12-24T03:07:06;10.60;99.90
39525;DHT22;25203;50.754;6.978;2022-12-24T03:09:11;10.60;99.90
39525;DHT22;25203;50.754;6.978;2022-12-24T03:11:13;10.60;99.90
39525;DHT22;25203;50.754;6.978;2022-12-24T03:13:16;10.50;99.90
39525;DHT22;25203;50.754;6.978;2022-12-24T03:15:21;10.40;99.90
39525;DHT22;25203;50.754;6.978;2022-12-24T03:17:22;10.30;99.90
39525;DHT22;25203;50.754;6.978;2022-12-24T03:19:23;10.20;99.90
39525;DHT22;25203;50.754;6.978;2022-12-24T03:21:28;10.10;99.90
39525;DHT22;25203;50.754;6.978;2022-12-24T03:23:30;10.00;99.90
39525;DHT22;25203;50.754;6.978;2022-12-24T03:25:32;10.00;99.90
39525;DHT22;25203;50.754;6.978;2022-12-24T03:27:33;9.90;99.90
39525;DHT22;25203;50.754;6.978;2022-12-24T03:29:35;9.90;99.90
39525;DHT22;25203;50.754;6.978;2022-12-24T03:33:42;9.90;99.90
39525;DHT22;25203;50.754;6.978;2022-12-24T03:35:43;9.80;99.90
39525;DHT22;25203;50.754;6.978;2022-12-24T03:37:44;9.80;99.90
39525;DHT22;25203;50.754;6.978;2022-12-24T03:39:44;9.70;99.90
39525;DHT22;25203;50.754;6.978;2022-12-24T03:41:45;9.70;99.90
39525;DHT22;25203;50.754;6.978;2022-12-24T03:43:45;9.70;99.90
39525;DHT22;25203;50.754;6.978;2022-12-24T03:45:46;9.60;99.90
39525;DHT22;25203;50.754;6.978;2022-12-24T03:47:47;9.70;99.90
39525;DHT22;25203;50.754;6.978;2022-12-24T03:49:47;9.70;99.90
39525;DHT22;25203;50.754;6.978;2022-12-24T03:51:48;9.80;99.90
39525;DHT22;25203;50.754;6.978;2022-12-24T03:53:50;9.80;99.90
39525;DHT22;25203;50.754;6.978;2022-12-24T03:55:51;9.80;99.90
39525;DHT22;25203;50.754;6.978;2022-12-24T03:57:51;9.80;99.90
39525;DHT22;25203;50.754;6.978;2022-12-24T03:59:52;9.70;99.90
39525;DHT22;25203;50.754;6.978;2022-12-24T04:01:52;9.70;99.90
39525;DHT22;25203;50.754;6.978;2022-12-24T04:03:53;9.60;99.90
39525;DHT22;25203;50.754;6.978;2022-12-24T04:06:08;9.60;99.90
39525;DHT22;25203;50.754;6.978;2022-12-24T04:08:08;9.50;99.90
39525;DHT22;25203;50.754;6.978;2022-12-24T04:10:09;9.50;99.90
39525;DHT22;25203;50.754;6.978;2022-12-24T04:12:10;9.50;99.90
39525;DHT22;25203;50.754;6.978;2022-12-24T04:14:11;9.40;99.90
39525;DHT22;25203;50.754;6.978;2022-12-24T04:16:14;9.40;99.90
39525;DHT22;25203;50.754;6.978;2022-12-24T04:18:15;9.30;99.90
39525;DHT22;25203;50.754;6.978;2022-12-24T04:20:15;9.20;99.90
39525;DHT22;25203;50.754;6.978;2022-12-24T04:22:16;9.10;99.90
39525;DHT22;25203;50.754;6.978;2022-12-24T04:24:17;9.10;99.90
39525;DHT22;25203;50.754;6.978;2022-12-24T04:26:18;9.00;99.90
39525;DHT22;25203;50.754;6.978;2022-12-24T04:28:18;8.90;99.90
39525;DHT22;25203;50.754;6.978;2022-12-24T04:30:19;8.90;99.90
39525;DHT22;25203;50.754;6.978;2022-12-24T04:32:19;8.90;99.90
39525;DHT22;25203;50.754;6.978;2022-12-24T04:34:20;8.90;99.90
39525;DHT22;25203;50.754;6.978;2022-12-24T04:36:22;8.80;99.90
39525;DHT22;25203;50.754;6.978;2022-12-24T04:38:22;8.80;99.90
39525;DHT22;25203;50.754;6.978;2022-12-24T04:40:23;8.80;99.90
39525;DHT22;25203;50.754;6.978;2022-12-24T04:42:24;8.70;99.90
39525;DHT22;25203;50.754;6.978;2022-12-24T04:44:25;8.70;99.90
39525;DHT22;25203;50.754;6.978;2022-12-24T04:46:27;8.60;99.90
39525;DHT22;25203;50.754;6.978;2022-12-24T04:48:31;8.60;99.90
39525;DHT22;25203;50.754;6.978;2022-12-24T04:50:31;8.50;99.90
39525;DHT22;25203;50.754;6.978;2022-12-24T04:52:33;8.50;99.90
39525;DHT22;25203;50.754;6.978;2022-12-24T04:54:33;8.50;99.90
39525;DHT22;25203;50.754;6.978;2022-12-24T04:56:34;8.40;99.90
39525;DHT22;25203;50.754;6.978;2022-12-24T04:58:35;8.40;99.90
39525;DHT22;25203;50.754;6.978;2022-12-24T05:00:36;8.40;99.90
39525;DHT22;25203;50.754;6.978;2022-12-24T05:02:36;8.40;99.90
39525;DHT22;25203;50.754;6.978;2022-12-24T05:04:37;8.40;99.90
39525;DHT22;25203;50.754;6.978;2022-12-24T05:06:38;8.40;99.90
39525;DHT22;25203;50.754;6.978;2022-12-24T05:08:38;8.50;99.90
39525;DHT22;25203;50.754;6.978;2022-12-24T05:10:39;8.50;99.90
39525;DHT22;25203;50.754;6.978;2022-12-24T05:12:39;8.60;99.90
39525;DHT22;25203;50.754;6.978;2022-12-24T05:14:40;8.70;99.90
39525;DHT22;25203;50.754;6.978;2022-12-24T05:16:41;8.80;99.90
39525;DHT22;25203;50.754;6.978;2022-12-24T05:18:43;8.80;99.90
39525;DHT22;25203;50.754;6.978;2022-12-24T05:20:43;8.90;99.90
39525;DHT22;25203;50.754;6.978;2022-12-24T05:22:44;8.90;99.90
39525;DHT22;25203;50.754;6.978;2022-12-24T05:25:03;9.10;99.90
39525;DHT22;25203;50.754;6.978;2022-12-24T05:27:23;9.10;99.90
39525;DHT22;25203;50.754;6.978;2022-12-24T05:29:24;9.20;99.90
39525;DHT22;25203;50.754;6.978;2022-12-24T05:31:26;9.20;99.90
39525;DHT22;25203;50.754;6.978;2022-12-24T05:33:27;9.30;99.90
39525;DHT22;25203;50.754;6.978;2022-12-24T05:35:28;9.40;99.90
39525;DHT22;25203;50.754;6.978;2022-12-24T05:37:28;9.50;99.90
39525;DHT22;25203;50.754;6.978;2022-12-24T05:39:29;9.60;99.90
39525;DHT22;25203;50.754;6.978;2022-12-24T05:41:29;9.60;99.90
39525;DHT22;25203;50.754;6.978;2022-12-24T05:43:30;9.60;99.90
39525;DHT22;25203;50.754;6.978;2022-12-24T05:45:31;9.60;99.90
39525;DHT22;25203;50.754;6.978;2022-12-24T05:47:32;9.50;99.90
39525;DHT22;25203;50.754;6.978;2022-12-24T05:49:32;9.50;99.90
39525;DHT22;25203;50.754;6.978;2022-12-24T05:51:34;9.60;99.90
39525;DHT22;25203;50.754;6.978;2022-12-24T05:53:35;9.60;99.90
39525;DHT22;25203;50.754;6.978;2022-12-24T05:55:35;9.60;99.90
39525;DHT22;25203;50.754;6.978;2022-12-24T05:57:37;9.60;99.90
39525;DHT22;25203;50.754;6.978;2022-12-24T05:59:38;9.60;99.90
39525;DHT22;25203;50.754;6.978;2022-12-24T06:01:39;9.60;99.90
39525;DHT22;25203;50.754;6.978;2022-12-24T06:03:39;9.60;99.90
39525;DHT22;25203;50.754;6.978;2022-12-24T06:05:40;9.60;99.90
39525;DHT22;25203;50.754;6.978;2022-12-24T06:07:41;9.60;99.90
39525;DHT22;25203;50.754;6.978;2022-12-24T06:09:41;9.60;99.90
39525;DHT22;25203;50.754;6.978;2022-12-24T06:11:42;9.60;99.90
39525;DHT22;25203;50.754;6.978;2022-12-24T06:13:43;9.60;99.90
39525;DHT22;25203;50.754;6.978;2022-12-24T06:15:44;9.60;99.90
39525;DHT22;25203;50.754;6.978;2022-12-24T06:17:44;9.70;99.90
39525;DHT22;25203;50.754;6.978;2022-12-24T06:19:45;9.70;99.90
39525;DHT22;25203;50.754;6.978;2022-12-24T06:21:45;9.70;99.90
39525;DHT22;25203;50.754;6.978;2022-12-24T06:23:46;9.70;99.90
39525;DHT22;25203;50.754;6.978;2022-12-24T06:25:47;9.70;99.90
39525;DHT22;25203;50.754;6.978;2022-12-24T06:27:48;9.70;99.90
39525;DHT22;25203;50.754;6.978;2022-12-24T06:29:48;9.70;99.90
39525;DHT22;25203;50.754;6.978;2022-12-24T06:31:49;9.70;99.90
39525;DHT22;25203;50.754;6.978;2022-12-24T06:33:51;9.70;99.90
39525;DHT22;25203;50.754;6.978;2022-12-24T06:35:52;9.70;99.90
39525;DHT22;25203;50.754;6.978;2022-12-24T06:37:52;9.70;99.90
39525;DHT22;25203;50.754;6.978;2022-12-24T06:39:53;9.70;99.90
39525;DHT22;25203;50.754;6.978;2022-12-24T06:41:53;9.70;99.90
39525;DHT22;25203;50.754;6.978;2022-12-24T06:43:54;9.70;99.90
39525;DHT22;25203;50.754;6.978;2022-12-24T06:45:55;9.70;99.90
39525;DHT22;25203;50.754;6.978;2022-12-24T06:47:55;9.70;99.90
39525;DHT22;25203;50.754;6.978;2022-12-24T06:49:56;9.70;99.90
39525;DHT22;25203;50.754;6.978;2022-12-24T06:51:56;9.70;99.90
39525;DHT22;25203;50.754;6.978;2022-12-24T06:53:57;9.80;99.90
39525;DHT22;25203;50.754;6.978;2022-12-24T06:56:06;9.70;99.90
39525;DHT22;25203;50.754;6.978;2022-12-24T06:58:06;9.70;99.90
39525;DHT22;25203;50.754;6.978;2022-12-24T07:00:09;9.60;99.90
39525;DHT22;25203;50.754;6.978;2022-12-24T07:02:10;9.60;99.90
39525;DHT22;25203;50.754;6.978;2022-12-24T07:04:11;9.60;99.90
39525;DHT22;25203;50.754;6.978;2022-12-24T07:06:32;9.60;99.90
39525;DHT22;25203;50.754;6.978;2022-12-24T07:08:33;9.60;99.90
39525;DHT22;25203;50.754;6.978;2022-12-24T07:10:35;9.60;99.90
39525;DHT22;25203;50.754;6.978;2022-12-24T07:12:36;9.60;99.90
39525;DHT22;25203;50.754;6.978;2022-12-24T07:14:36;9.50;99.90
39525;DHT22;25203;50.754;6.978;2022-12-24T07:16:37;9.50;99.90
39525;DHT22;25203;50.754;6.978;2022-12-24T07:18:37;9.60;99.90
39525;DHT22;25203;50.754;6.978;2022-12-24T07:20:38;9.60;99.90
39525;DHT22;25203;50.754;6.978;2022-12-24T07:22:39;9.60;99.90
39525;DHT22;25203;50.754;6.978;2022-12-24T07:24:39;9.50;99.90
39525;DHT22;25203;50.754;6.978;2022-12-24T07:26:40;9.50;99.90
39525;DHT22;25203;50.754;6.978;2022-12-24T07:28:40;9.50;99.90
39525;DHT22;25203;50.754;6.978;2022-12-24T07:30:41;9.50;99.90
39525;DHT22;25203;50.754;6.978;2022-12-24T07:32:42;9.50;99.90
39525;DHT22;25203;50.754;6.978;2022-12-24T07:34:42;9.50;99.90
39525;DHT22;25203;50.754;6.978;2022-12-24T07:36:43;9.50;99.90
39525;DHT22;25203;50.754;6.978;2022-12-24T07:38:43;9.40;99.90
39525;DHT22;25203;50.754;6.978;2022-12-24T07:40:44;9.40;99.90
39525;DHT22;25203;50.754;6.978;2022-12-24T07:42:44;9.40;99.90
39525;DHT22;25203;50.754;6.978;2022-12-24T07:44:45;9.50;99.90
39525;DHT22;25203;50.754;6.978;2022-12-24T07:46:46;9.50;99.90
39525;DHT22;25203;50.754;6.978;2022-12-24T07:48:46;9.50;99.90
39525;DHT22;25203;50.754;6.978;2022-12-24T07:50:51;9.50;99.90
39525;DHT22;25203;50.754;6.978;2022-12-24T07:52:51;9.40;99.90
39525;DHT22;25203;50.754;6.978;2022-12-24T07:54:52;9.40;99.90
39525;DHT22;25203;50.754;6.978;2022-12-24T07:56:53;9.30;99.90
39525;DHT22;25203;50.754;6.978;2022-12-24T07:58:54;9.30;99.90
39525;DHT22;25203;50.754;6.978;2022-12-24T08:00:58;9.30;99.90
39525;DHT22;25203;50.754;6.978;2022-12-24T08:02:59;9.40;99.90
39525;DHT22;25203;50.754;6.978;2022-12-24T08:04:59;9.40;99.90
39525;DHT22;25203;50.754;6.978;2022-12-24T08:07:01;9.40;99.90
39525;DHT22;25203;50.754;6.978;2022-12-24T08:09:01;9.40;99.90
39525;DHT22;25203;50.754;6.978;2022-12-24T08:11:04;9.50;99.90
39525;DHT22;25203;50.754;6.978;2022-12-24T08:13:05;9.50;99.90
39525;DHT22;25203;50.754;6.978;2022-12-24T08:15:06;9.60;99.90
39525;DHT22;25203;50.754;6.978;2022-12-24T08:17:06;9.70;99.90
39525;DHT22;25203;50.754;6.978;2022-12-24T08:19:07;9.70;99.90
39525;DHT22;25203;50.754;6.978;2022-12-24T08:21:08;9.80;99.90
39525;DHT22;25203;50.754;6.978;2022-12-24T08:23:09;9.80;99.90
39525;DHT22;25203;50.754;6.978;2022-12-24T08:25:09;9.80;99.90
39525;DHT22;25203;50.754;6.978;2022-12-24T08:27:10;9.80;99.90
39525;DHT22;25203;50.754;6.978;2022-12-24T08:29:10;10.00;99.90
39525;DHT22;25203;50.754;6.978;2022-12-24T08:31:11;10.10;99.90
39525;DHT22;25203;50.754;6.978;2022-12-24T08:33:12;10.20;99.90
39525;DHT22;25203;50.754;6.978;2022-12-24T08:35:12;10.20;99.90
39525;DHT22;25203;50.754;6.978;2022-12-24T08:37:13;10.30;99.90
39525;DHT22;25203;50.754;6.978;2022-12-24T08:39:14;10.60;99.90
39525;DHT22;25203;50.754;6.978;2022-12-24T08:41:14;10.90;99.90
39525;DHT22;25203;50.754;6.978;2022-12-24T08:43:18;10.90;99.90
39525;DHT22;25203;50.754;6.978;2022-12-24T08:45:19;10.80;99.90
39525;DHT22;25203;50.754;6.978;2022-12-24T08:47:20;10.80;99.90
39525;DHT22;25203;50.754;6.978;2022-12-24T08:49:20;10.90;99.90
39525;DHT22;25203;50.754;6.978;2022-12-24T08:51:21;11.00;99.90
39525;DHT22;25203;50.754;6.978;2022-12-24T08:53:22;11.20;99.90
39525;DHT22;25203;50.754;6.978;2022-12-24T08:55:22;11.40;99.90
39525;DHT22;25203;50.754;6.978;2022-12-24T08:57:23;11.50;99.90
39525;DHT22;25203;50.754;6.978;2022-12-24T08:59:23;11.70;99.90
39525;DHT22;25203;50.754;6.978;2022-12-24T09:01:24;12.20;99.90
39525;DHT22;25203;50.754;6.978;2022-12-24T09:03:25;12.40;99.90
39525;DHT22;25203;50.754;6.978;2022-12-24T09:05:26;12.70;99.90
39525;DHT22;25203;50.754;6.978;2022-12-24T09:07:26;12.90;99.90
39525;DHT22;25203;50.754;6.978;2022-12-24T09:09:27;12.90;99.90
39525;DHT22;25203;50.754;6.978;2022-12-24T09:11:28;12.50;99.90
39525;DHT22;25203;50.754;6.978;2022-12-24T09:13:28;12.10;99.90
39525;DHT22;25203;50.754;6.978;2022-12-24T09:15:29;11.80;99.90
39525;DHT22;25203;50.754;6.978;2022-12-24T09:17:30;11.60;99.90
39525;DHT22;25203;50.754;6.978;2022-12-24T09:19:30;11.60;99.90
39525;DHT22;25203;50.754;6.978;2022-12-24T09:21:31;11.80;99.90
39525;DHT22;25203;50.754;6.978;2022-12-24T09:23:34;12.10;99.90
39525;DHT22;25203;50.754;6.978;2022-12-24T09:25:42;12.40;99.90
39525;DHT22;25203;50.754;6.978;2022-12-24T09:27:43;12.70;99.90
39525;DHT22;25203;50.754;6.978;2022-12-24T09:29:44;12.90;99.90
39525;DHT22;25203;50.754;6.978;2022-12-24T09:31:44;12.80;99.90
39525;DHT22;25203;50.754;6.978;2022-12-24T09:33:47;12.60;99.90
39525;DHT22;25203;50.754;6.978;2022-12-24T09:35:50;12.40;99.90
39525;DHT22;25203;50.754;6.978;2022-12-24T09:37:51;12.40;99.90
39525;DHT22;25203;50.754;6.978;2022-12-24T09:40:02;12.30;99.90
39525;DHT22;25203;50.754;6.978;2022-12-24T09:46:39;12.40;99.90
39525;DHT22;25203;50.754;6.978;2022-12-24T09:48:49;12.30;99.90
39525;DHT22;25203;50.754;6.978;2022-12-24T09:50:56;12.30;99.90
39525;DHT22;25203;50.754;6.978;2022-12-24T09:53:01;12.20;99.90
39525;DHT22;25203;50.754;6.978;2022-12-24T09:55:16;12.10;99.90
39525;DHT22;25203;50.754;6.978;2022-12-24T09:57:28;12.00;99.90
39525;DHT22;25203;50.754;6.978;2022-12-24T09:59:42;11.90;99.90
39525;DHT22;25203;50.754;6.978;2022-12-24T10:01:43;11.80;99.90
39525;DHT22;25203;50.754;6.978;2022-12-24T10:03:44;11.90;99.90
39525;DHT22;25203;50.754;6.978;2022-12-24T10:10:34;11.70;99.90
39525;DHT22;25203;50.754;6.978;2022-12-24T10:13:03;11.70;99.90
39525;DHT22;25203;50.754;6.978;2022-12-24T10:24:43;11.60;99.90
39525;DHT22;25203;50.754;6.978;2022-12-24T10:27:16;11.60;99.90
39525;DHT22;25203;50.754;6.978;2022-12-24T10:29:46;11.60;99.90
39525;DHT22;25203;50.754;6.978;2022-12-24T10:34:03;11.70;99.90
39525;DHT22;25203;50.754;6.978;2022-12-24T10:36:19;11.70;99.90
39525;DHT22;25203;50.754;6.978;2022-12-24T10:38:21;11.70;99.90
39525;DHT22;25203;50.754;6.978;2022-12-24T10:40:30;11.70;99.90
39525;DHT22;25203;50.754;6.978;2022-12-24T10:42:40;11.70;99.90
39525;DHT22;25203;50.754;6.978;2022-12-24T10:44:46;11.70;99.90
39525;DHT22;25203;50.754;6.978;2022-12-24T10:46:49;11.80;99.90
39525;DHT22;25203;50.754;6.978;2022-12-24T10:48:54;11.80;99.90
39525;DHT22;25203;50.754;6.978;2022-12-24T10:51:08;11.90;99.90
39525;DHT22;25203;50.754;6.978;2022-12-24T10:53:20;11.90;99.90
39525;DHT22;25203;50.754;6.978;2022-12-24T10:55:23;11.90;99.90
39525;DHT22;25203;50.754;6.978;2022-12-24T10:57:25;11.80;99.90
39525;DHT22;25203;50.754;6.978;2022-12-24T11:01:44;11.80;99.90
39525;DHT22;25203;50.754;6.978;2022-12-24T11:03:45;11.80;99.90
39525;DHT22;25203;50.754;6.978;2022-12-24T11:06:10;11.80;99.90
39525;DHT22;25203;50.754;6.978;2022-12-24T11:10:22;11.80;99.90
39525;DHT22;25203;50.754;6.978;2022-12-24T11:12:29;11.90;99.90
39525;DHT22;25203;50.754;6.978;2022-12-24T11:14:34;11.90;99.90
39525;DHT22;25203;50.754;6.978;2022-12-24T11:16:35;11.90;99.90
39525;DHT22;25203;50.754;6.978;2022-12-24T11:18:43;11.90;99.90
39525;DHT22;25203;50.754;6.978;2022-12-24T11:20:50;12.00;99.90
39525;DHT22;25203;50.754;6.978;2022-12-24T11:22:51;12.10;99.90
39525;DHT22;25203;50.754;6.978;2022-12-24T11:29:23;12.40;99.90
39525;DHT22;25203;50.754;6.978;2022-12-24T11:31:24;12.40;99.90
39525;DHT22;25203;50.754;6.978;2022-12-24T11:33:26;12.30;99.90
39525;DHT22;25203;50.754;6.978;2022-12-24T11:35:28;12.20;99.90
39525;DHT22;25203;50.754;6.978;2022-12-24T11:37:29;12.10;99.90
39525;DHT22;25203;50.754;6.978;2022-12-24T11:39:38;12.10;99.90
39525;DHT22;25203;50.754;6.978;2022-12-24T11:41:39;12.10;99.90
39525;DHT22;25203;50.754;6.978;2022-12-24T11:43:46;12.10;99.90
39525;DHT22;25203;50.754;6.978;2022-12-24T11:45:57;12.10;99.90
39525;DHT22;25203;50.754;6.978;2022-12-24T11:48:33;12.00;99.90
39525;DHT22;25203;50.754;6.978;2022-12-24T11:50:35;11.90;99.90
39525;DHT22;25203;50.754;6.978;2022-12-24T11:52:36;11.90;99.90
39525;DHT22;25203;50.754;6.978;2022-12-24T11:55:06;12.00;99.90
39525;DHT22;25203;50.754;6.978;2022-12-24T11:57:13;12.00;99.90
39525;DHT22;25203;50.754;6.978;2022-12-24T11:59:29;11.90;99.90
39525;DHT22;25203;50.754;6.978;2022-12-24T12:01:57;12.00;99.90
39525;DHT22;25203;50.754;6.978;2022-12-24T12:06:37;12.00;99.90
39525;DHT22;25203;50.754;6.978;2022-12-24T12:08:39;12.10;99.90
39525;DHT22;25203;50.754;6.978;2022-12-24T12:10:42;12.20;99.90
39525;DHT22;25203;50.754;6.978;2022-12-24T12:13:12;12.30;99.90
39525;DHT22;25203;50.754;6.978;2022-12-24T12:15:21;12.40;99.90
39525;DHT22;25203;50.754;6.978;2022-12-24T12:17:29;12.50;99.90
39525;DHT22;25203;50.754;6.978;2022-12-24T12:19:46;12.50;99.90
39525;DHT22;25203;50.754;6.978;2022-12-24T12:21:48;12.50;99.90
39525;DHT22;25203;50.754;6.978;2022-12-24T12:23:53;12.60;99.90
39525;DHT22;25203;50.754;6.978;2022-12-24T12:26:11;12.60;99.90
39525;DHT22;25203;50.754;6.978;2022-12-24T12:30:40;12.50;99.90
39525;DHT22;25203;50.754;6.978;2022-12-24T12:33:39;12.40;99.90
39525;DHT22;25203;50.754;6.978;2022-12-24T12:35:42;12.20;99.90
39525;DHT22;25203;50.754;6.978;2022-12-24T12:37:51;12.10;99.90
39525;DHT22;25203;50.754;6.978;2022-12-24T12:39:54;12.10;99.90
39525;DHT22;25203;50.754;6.978;2022-12-24T12:51:48;12.50;99.90
39525;DHT22;25203;50.754;6.978;2022-12-24T12:56:29;12.80;99.90
39525;DHT22;25203;50.754;6.978;2022-12-24T12:58:40;12.80;99.90
39525;DHT22;25203;50.754;6.978;2022-12-24T13:00:46;12.90;99.90
39525;DHT22;25203;50.754;6.978;2022-12-24T13:21:02;12.80;99.90
39525;DHT22;25203;50.754;6.978;2022-12-24T13:23:16;12.80;99.90
39525;DHT22;25203;50.754;6.978;2022-12-24T13:25:23;12.80;99.90
39525;DHT22;25203;50.754;6.978;2022-12-24T13:27:28;12.80;99.90
39525;DHT22;25203;50.754;6.978;2022-12-24T13:29:58;12.70;99.90
39525;DHT22;25203;50.754;6.978;2022-12-24T13:34:34;12.60;99.90
39525;DHT22;25203;50.754;6.978;2022-12-24T13:37:00;12.60;99.90
39525;DHT22;25203;50.754;6.978;2022-12-24T13:39:02;12.50;99.90
39525;DHT22;25203;50.754;6.978;2022-12-24T13:46:06;12.40;99.90
39525;DHT22;25203;50.754;6.978;2022-12-24T13:50:20;12.40;99.90
39525;DHT22;25203;50.754;6.978;2022-12-24T13:52:24;12.40;99.90
39525;DHT22;25203;50.754;6.978;2022-12-24T13:54:26;12.50;99.90
39525;DHT22;25203;50.754;6.978;2022-12-24T13:56:29;12.50;99.90
39525;DHT22;25203;50.754;6.978;2022-12-24T13:58:31;12.50;99.90
39525;DHT22;25203;50.754;6.978;2022-12-24T14:00:38;12.50;99.90
39525;DHT22;25203;50.754;6.978;2022-12-24T14:03:00;12.40;99.90
39525;DHT22;25203;50.754;6.978;2022-12-24T14:05:05;12.30;99.90
39525;DHT22;25203;50.754;6.978;2022-12-24T14:07:07;12.30;99.90
39525;DHT22;25203;50.754;6.978;2022-12-24T14:09:15;12.30;99.90
39525;DHT22;25203;50.754;6.978;2022-12-24T14:11:25;12.20;99.90
39525;DHT22;25203;50.754;6.978;2022-12-24T14:17:48;12.10;99.90
39525;DHT22;25203;50.754;6.978;2022-12-24T14:19:55;12.00;99.90
39525;DHT22;25203;50.754;6.978;2022-12-24T14:22:11;11.90;99.90
39525;DHT22;25203;50.754;6.978;2022-12-24T14:24:21;11.80;99.90
39525;DHT22;25203;50.754;6.978;2022-12-24T14:26:29;11.80;99.90
39525;DHT22;25203;50.754;6.978;2022-12-24T14:28:39;11.70;99.90
39525;DHT22;25203;50.754;6.978;2022-12-24T14:30:40;11.70;99.90
39525;DHT22;25203;50.754;6.978;2022-12-24T14:32:41;11.60;99.90
39525;DHT22;25203;50.754;6.978;2022-12-24T14:34:42;11.50;99.90
39525;DHT22;25203;50.754;6.978;2022-12-24T14:36:43;11.40;99.90
39525;DHT22;25203;50.754;6.978;2022-12-24T14:38:45;11.30;99.90
39525;DHT22;25203;50.754;6.978;2022-12-24T14:55:40;10.70;99.90
39525;DHT22;25203;50.754;6.978;2022-12-24T14:57:40;10.70;99.90
39525;DHT22;25203;50.754;6.978;2022-12-24T14:59:55;10.60;99.90
39525;DHT22;25203;50.754;6.978;2022-12-24T15:01:56;10.50;99.90
39525;DHT22;25203;50.754;6.978;2022-12-24T15:06:11;10.40;99.90